createdAt,value
2018-03-31T00:00:59.140Z,7.30
2018-03-31T00:03:27.320Z,5.95
2018-03-31T00:05:55.496Z,7.45
2018-03-31T00:08:23.712Z,5.37
2018-03-31T00:10:51.906Z,6.03
2018-03-31T00:13:20.100Z,5.20
2018-03-31T00:15:48.320Z,11.63
2018-03-31T00:18:16.492Z,5.18
2018-03-31T00:20:44.645Z,6.65
2018-03-31T00:23:12.860Z,6.60
2018-03-31T00:25:41.048Z,8.30
2018-03-31T00:28:09.219Z,6.85
2018-03-31T00:30:37.403Z,7.70
2018-03-31T00:33:06.632Z,7.37
2018-03-31T00:35:34.828Z,6.90
2018-03-31T00:38:03.000Z,8.82
2018-03-31T00:40:31.173Z,7.85
2018-03-31T00:42:59.351Z,7.57
2018-03-31T00:45:27.539Z,6.45
2018-03-31T00:47:55.728Z,8.23
2018-03-31T00:50:23.936Z,9.65
2018-03-31T00:52:52.133Z,9.15
2018-03-31T00:55:20.313Z,8.13
2018-03-31T00:57:48.487Z,12.02
2018-03-31T01:00:16.660Z,9.00
2018-03-31T01:02:44.860Z,10.00
2018-03-31T01:05:13.069Z,8.95
2018-03-31T01:07:41.264Z,7.78
2018-03-31T01:10:09.448Z,16.20
2018-03-31T01:12:37.664Z,9.90
2018-03-31T01:15:05.857Z,10.05
2018-03-31T01:17:34.042Z,6.70
2018-03-31T01:20:02.266Z,9.48
2018-03-31T01:22:30.479Z,7.70
2018-03-31T01:24:58.647Z,10.18
2018-03-31T01:27:26.836Z,10.02
2018-03-31T01:29:55.016Z,8.98
2018-03-31T01:32:23.171Z,8.98
2018-03-31T01:34:51.339Z,8.00
2018-03-31T01:37:19.492Z,8.73
2018-03-31T01:39:47.664Z,8.30
2018-03-31T01:42:15.851Z,8.90
2018-03-31T01:44:44.023Z,8.05
2018-03-31T01:47:12.212Z,8.93
2018-03-31T01:49:40.394Z,11.77
2018-03-31T01:52:08.595Z,13.52
2018-03-31T01:54:36.752Z,13.90
2018-03-31T01:57:04.929Z,13.18
2018-03-31T01:59:33.107Z,13.30
2018-03-31T02:02:01.315Z,10.38
2018-03-31T02:04:29.527Z,9.75
2018-03-31T02:06:57.751Z,11.93
2018-03-31T02:09:25.912Z,15.63
2018-03-31T02:11:54.085Z,12.32
2018-03-31T02:14:22.251Z,11.45
2018-03-31T02:16:50.628Z,14.65
2018-03-31T02:19:18.792Z,12.80
2018-03-31T02:21:46.976Z,13.65
2018-03-31T02:24:15.156Z,11.35
2018-03-31T02:26:43.343Z,17.25
2018-03-31T02:29:11.539Z,12.80
2018-03-31T02:31:39.698Z,17.92
2018-03-31T02:34:07.862Z,12.82
2018-03-31T02:36:36.032Z,12.45
2018-03-31T02:39:04.204Z,11.15
2018-03-31T02:41:32.365Z,11.20
2018-03-31T02:44:00.519Z,13.60
2018-03-31T02:46:28.691Z,14.40
2018-03-31T02:48:56.908Z,11.63
2018-03-31T02:51:25.116Z,13.48
2018-03-31T02:53:53.268Z,10.75
2018-03-31T02:56:21.460Z,17.35
2018-03-31T02:58:49.668Z,11.95
2018-03-31T03:01:17.844Z,15.80
2018-03-31T03:03:46.035Z,11.82
2018-03-31T03:06:15.296Z,18.08
2018-03-31T03:08:43.497Z,12.35
2018-03-31T03:11:11.690Z,15.13
2018-03-31T03:13:39.856Z,12.02
2018-03-31T03:16:08.016Z,9.93
2018-03-31T03:18:36.183Z,10.77
2018-03-31T03:21:04.339Z,12.15
2018-03-31T03:23:32.528Z,11.02
2018-03-31T03:26:00.708Z,15.77
2018-03-31T03:28:28.862Z,10.18
2018-03-31T03:30:57.054Z,10.20
2018-03-31T03:33:25.220Z,9.73
2018-03-31T03:35:53.444Z,10.48
2018-03-31T03:38:21.607Z,11.15
2018-03-31T03:40:50.768Z,11.55
2018-03-31T03:43:18.932Z,13.35
2018-03-31T03:45:47.100Z,10.27
2018-03-31T03:48:15.328Z,11.02
2018-03-31T03:50:43.508Z,9.02
2018-03-31T03:53:11.696Z,11.27
2018-03-31T03:55:39.864Z,11.85
2018-03-31T03:58:08.092Z,12.18
2018-03-31T04:00:36.243Z,13.82
2018-03-31T04:03:04.399Z,8.55
2018-03-31T04:05:32.588Z,10.00
2018-03-31T04:08:00.798Z,12.63
2018-03-31T04:10:28.960Z,10.43
2018-03-31T04:12:57.148Z,14.18
2018-03-31T04:15:25.304Z,11.40
2018-03-31T04:17:53.481Z,14.57
2018-03-31T04:20:21.688Z,11.43
2018-03-31T04:22:49.874Z,10.80
2018-03-31T04:25:18.039Z,14.40
2018-03-31T04:27:46.248Z,17.73
2018-03-31T04:30:14.435Z,15.63
2018-03-31T04:32:42.637Z,11.23
2018-03-31T04:35:10.802Z,12.37
2018-03-31T04:37:38.951Z,11.88
2018-03-31T04:40:07.111Z,10.00
2018-03-31T04:42:35.280Z,10.73
2018-03-31T04:45:03.417Z,8.27
2018-03-31T04:47:31.617Z,10.23
2018-03-31T04:49:59.816Z,15.02
2018-03-31T04:52:28.020Z,10.30
2018-03-31T04:54:56.235Z,13.93
2018-03-31T04:57:24.412Z,12.90
2018-03-31T04:59:52.647Z,10.57
2018-03-31T05:02:20.860Z,12.52
2018-03-31T05:04:49.061Z,10.90
2018-03-31T05:07:17.257Z,10.32
2018-03-31T05:09:45.479Z,10.35
2018-03-31T05:12:13.764Z,9.80
2018-03-31T05:14:41.969Z,10.00
2018-03-31T05:17:10.135Z,10.70
2018-03-31T05:19:38.320Z,10.45
2018-03-31T05:22:06.468Z,9.27
2018-03-31T05:24:34.644Z,10.35
2018-03-31T05:27:03.122Z,12.63
2018-03-31T05:29:31.381Z,11.10
2018-03-31T05:31:59.600Z,10.45
2018-03-31T05:34:27.764Z,13.15
2018-03-31T05:36:56.016Z,12.57
2018-03-31T05:39:24.210Z,14.35
2018-03-31T05:41:52.372Z,10.27
2018-03-31T05:44:20.556Z,10.90
2018-03-31T05:46:48.756Z,11.07
2018-03-31T05:49:16.948Z,11.55
2018-03-31T05:51:45.182Z,11.70
2018-03-31T05:54:13.374Z,9.52
2018-03-31T05:56:41.573Z,10.05
2018-03-31T05:59:09.760Z,12.20
2018-03-31T06:01:37.941Z,11.35
2018-03-31T06:04:06.113Z,8.15
2018-03-31T06:06:34.276Z,12.98
2018-03-31T06:09:02.486Z,11.75
2018-03-31T06:11:30.704Z,9.98
2018-03-31T06:13:58.868Z,13.10
2018-03-31T06:16:27.065Z,19.17
2018-03-31T06:18:55.263Z,19.48
2018-03-31T06:21:23.448Z,14.18
2018-03-31T06:23:51.620Z,14.57
2018-03-31T06:26:19.848Z,25.15
2018-03-31T06:28:48.012Z,24.63
2018-03-31T06:31:16.207Z,28.12
2018-03-31T06:33:44.402Z,28.58
2018-03-31T06:36:12.592Z,21.73
2018-03-31T06:38:40.812Z,21.05
2018-03-31T06:41:08.997Z,23.48
2018-03-31T06:43:37.184Z,25.17
2018-03-31T06:46:05.383Z,23.17
2018-03-31T06:48:33.564Z,21.95
2018-03-31T06:51:01.728Z,15.40
2018-03-31T06:53:29.944Z,16.92
2018-03-31T06:55:58.153Z,15.90
2018-03-31T06:58:26.323Z,20.67
2018-03-31T07:00:54.604Z,18.00
2018-03-31T07:03:23.839Z,14.18
2018-03-31T07:05:52.188Z,16.95
2018-03-31T07:08:20.376Z,13.73
2018-03-31T07:10:48.539Z,15.50
2018-03-31T07:13:16.739Z,15.70
2018-03-31T07:15:44.924Z,20.23
2018-03-31T07:18:13.096Z,16.52
2018-03-31T07:20:41.300Z,14.52
2018-03-31T07:23:09.515Z,14.40
2018-03-31T07:25:37.704Z,12.20
2018-03-31T07:28:05.872Z,15.20
2018-03-31T07:30:34.064Z,14.48
2018-03-31T07:33:02.247Z,15.18
2018-03-31T07:35:30.421Z,13.60
2018-03-31T07:37:58.676Z,13.32
2018-03-31T07:40:26.851Z,15.00
2018-03-31T07:42:55.060Z,12.98
2018-03-31T07:45:23.255Z,10.05
2018-03-31T07:47:51.455Z,14.13
2018-03-31T07:50:19.639Z,11.73
2018-03-31T07:52:47.815Z,12.68
2018-03-31T07:55:15.984Z,11.12
2018-03-31T07:57:44.172Z,55.42
2018-03-31T08:00:12.340Z,7.60
2018-03-31T08:02:41.636Z,10.23
2018-03-31T08:05:09.818Z,8.43
2018-03-31T08:07:38.012Z,8.90
2018-03-31T08:10:06.165Z,10.48
2018-03-31T08:12:34.348Z,6.00
2018-03-31T08:15:02.582Z,7.83
2018-03-31T08:17:30.752Z,5.30
2018-03-31T08:19:58.920Z,5.23
2018-03-31T08:22:27.116Z,4.87
2018-03-31T08:24:55.288Z,4.10
2018-03-31T08:27:23.465Z,3.90
2018-03-31T08:29:51.641Z,4.10
2018-03-31T08:32:19.840Z,3.47
2018-03-31T08:34:48.039Z,3.00
2018-03-31T08:37:16.220Z,3.30
2018-03-31T08:39:44.424Z,2.73
2018-03-31T08:42:12.631Z,2.20
2018-03-31T08:44:40.800Z,2.33
2018-03-31T08:47:09.022Z,2.90
2018-03-31T08:49:37.179Z,2.90
2018-03-31T08:52:05.345Z,2.30
2018-03-31T08:54:33.590Z,2.70
2018-03-31T08:57:01.724Z,3.47
2018-03-31T08:59:29.864Z,2.57
2018-03-31T09:01:58.016Z,3.07
2018-03-31T09:04:26.220Z,2.90
2018-03-31T09:06:54.374Z,3.13
2018-03-31T09:09:22.559Z,2.90
2018-03-31T09:11:50.813Z,2.20
2018-03-31T09:14:18.980Z,2.10
2018-03-31T09:16:47.169Z,1.60
2018-03-31T09:19:15.360Z,2.73
2018-03-31T09:21:43.518Z,2.40
2018-03-31T09:24:11.732Z,1.87
2018-03-31T09:26:39.909Z,1.97
2018-03-31T09:29:07.816Z,1.07
2018-03-31T09:31:35.728Z,1.50
2018-03-31T09:34:03.640Z,1.40
2018-03-31T09:36:31.573Z,2.87
2018-03-31T09:38:59.737Z,1.40
2018-03-31T09:41:27.899Z,2.07
2018-03-31T09:43:56.078Z,3.00
2018-03-31T09:46:24.272Z,2.60
2018-03-31T09:48:52.176Z,2.00
2018-03-31T09:51:20.372Z,2.93
2018-03-31T09:53:48.524Z,1.97
2018-03-31T09:56:16.436Z,1.93
2018-03-31T09:58:44.304Z,2.60
2018-03-31T10:01:12.188Z,2.00
2018-03-31T10:03:40.084Z,2.00
2018-03-31T10:06:07.945Z,2.60
2018-03-31T10:08:35.832Z,3.10
2018-03-31T10:11:03.704Z,2.70
2018-03-31T10:13:31.598Z,1.80
2018-03-31T10:15:59.504Z,3.07
2018-03-31T10:18:27.439Z,1.60
2018-03-31T10:20:55.413Z,1.60
2018-03-31T10:23:23.293Z,1.70
2018-03-31T10:25:51.188Z,1.77
2018-03-31T10:28:19.096Z,3.87
2018-03-31T10:30:46.952Z,2.37
2018-03-31T10:33:14.842Z,1.93
2018-03-31T10:35:42.746Z,1.50
2018-03-31T10:38:10.707Z,2.13
2018-03-31T10:40:38.724Z,1.60
2018-03-31T10:43:06.948Z,1.90
2018-03-31T10:45:35.128Z,1.27
2018-03-31T10:48:03.037Z,1.67
2018-03-31T10:50:30.904Z,1.87
2018-03-31T10:52:58.793Z,1.73
2018-03-31T10:55:26.716Z,2.33
2018-03-31T10:57:54.583Z,1.57
2018-03-31T11:00:22.542Z,1.53
2018-03-31T11:02:50.395Z,1.83
2018-03-31T11:05:18.288Z,2.57
2018-03-31T11:07:46.175Z,1.77
2018-03-31T11:10:14.088Z,1.83
2018-03-31T11:12:41.933Z,1.50
2018-03-31T11:15:09.840Z,1.50
2018-03-31T11:17:37.737Z,1.23
2018-03-31T11:20:06.658Z,1.07
2018-03-31T11:22:34.538Z,0.77
2018-03-31T11:25:02.445Z,1.03
2018-03-31T11:27:30.399Z,1.43
2018-03-31T11:29:58.284Z,2.57
2018-03-31T11:32:26.196Z,1.83
2018-03-31T11:34:54.100Z,1.10
2018-03-31T11:37:21.958Z,1.13
2018-03-31T11:39:49.872Z,1.90
2018-03-31T11:42:18.112Z,1.90
2018-03-31T11:44:46.240Z,1.07
2018-03-31T11:47:14.482Z,3.13
2018-03-31T11:49:42.643Z,1.20
2018-03-31T11:52:10.826Z,1.33
2018-03-31T11:54:39.011Z,1.60
2018-03-31T11:57:07.208Z,2.00
2018-03-31T11:59:35.384Z,1.20
2018-03-31T12:02:03.552Z,2.10
2018-03-31T12:04:31.740Z,1.60
2018-03-31T12:06:59.923Z,1.80
2018-03-31T12:09:28.105Z,1.70
2018-03-31T12:11:56.267Z,1.30
2018-03-31T12:14:24.463Z,1.30
2018-03-31T12:16:52.311Z,1.37
2018-03-31T12:19:20.192Z,2.07
2018-03-31T12:21:48.404Z,1.03
2018-03-31T12:24:16.576Z,1.20
2018-03-31T12:26:44.786Z,1.10
2018-03-31T12:29:12.968Z,0.80
2018-03-31T12:31:41.156Z,2.30
2018-03-31T12:34:09.043Z,0.77
2018-03-31T12:36:36.958Z,1.57
2018-03-31T12:39:05.172Z,1.13
2018-03-31T12:41:35.364Z,0.60
2018-03-31T12:44:03.282Z,1.30
2018-03-31T12:46:31.223Z,0.83
2018-03-31T12:48:59.128Z,0.80
2018-03-31T12:51:27.050Z,1.57
2018-03-31T12:53:54.936Z,2.70
2018-03-31T12:56:22.797Z,1.50
2018-03-31T12:58:50.718Z,1.40
2018-03-31T13:01:18.556Z,0.77
2018-03-31T13:03:46.455Z,2.20
2018-03-31T13:06:14.360Z,2.03
2018-03-31T13:08:42.256Z,0.77
2018-03-31T13:11:10.164Z,1.17
2018-03-31T13:13:38.079Z,1.13
2018-03-31T13:16:07.050Z,0.70
2018-03-31T13:18:34.928Z,1.47
2018-03-31T13:21:02.826Z,1.10
2018-03-31T13:23:30.700Z,1.30
2018-03-31T13:25:58.604Z,0.60
2018-03-31T13:28:26.504Z,2.10
2018-03-31T13:30:54.400Z,9.07
2018-03-31T13:33:22.588Z,1.90
2018-03-31T13:35:50.761Z,0.50
2018-03-31T13:38:18.986Z,0.67
2018-03-31T13:40:47.203Z,1.33
2018-03-31T13:43:15.417Z,0.93
2018-03-31T13:45:43.626Z,1.53
2018-03-31T13:48:11.797Z,2.13
2018-03-31T13:50:39.991Z,1.60
2018-03-31T13:53:07.869Z,1.73
2018-03-31T13:55:36.093Z,0.93
2018-03-31T13:58:03.980Z,1.70
2018-03-31T14:00:31.872Z,0.70
2018-03-31T14:02:59.792Z,1.10
2018-03-31T14:05:27.671Z,0.60
2018-03-31T14:07:55.511Z,3.90
2018-03-31T14:10:23.388Z,0.77
2018-03-31T14:12:51.256Z,3.00
2018-03-31T14:15:19.148Z,2.90
2018-03-31T14:17:47.034Z,2.30
2018-03-31T14:20:14.906Z,1.07
2018-03-31T14:22:42.820Z,0.90
2018-03-31T14:25:10.964Z,1.10
2018-03-31T14:27:39.156Z,1.03
2018-03-31T14:30:07.351Z,1.58
2018-03-31T14:32:35.515Z,2.93
2018-03-31T14:35:03.717Z,2.93
2018-03-31T14:37:31.968Z,13.70
2018-03-31T14:40:00.168Z,1.50
2018-03-31T14:42:28.092Z,3.20
2018-03-31T14:44:55.952Z,1.53
2018-03-31T14:47:23.845Z,1.17
2018-03-31T14:49:51.728Z,12.00
2018-03-31T14:52:19.600Z,5.83
2018-03-31T14:54:47.468Z,4.23
2018-03-31T14:57:15.381Z,1.80
2018-03-31T14:59:43.307Z,0.80
2018-03-31T15:02:11.200Z,0.70
2018-03-31T15:04:39.164Z,5.00
2018-03-31T15:07:07.079Z,0.93
2018-03-31T15:09:34.960Z,1.90
2018-03-31T15:12:02.816Z,0.80
2018-03-31T15:14:30.687Z,0.80
2018-03-31T15:16:58.566Z,1.80
2018-03-31T15:19:27.667Z,0.90
2018-03-31T15:21:55.523Z,0.70
2018-03-31T15:24:23.384Z,1.20
2018-03-31T15:26:51.300Z,3.10
2018-03-31T15:29:19.194Z,1.20
2018-03-31T15:31:47.109Z,0.73
2018-03-31T15:34:15.012Z,0.67
2018-03-31T15:36:42.905Z,2.20
2018-03-31T15:39:10.830Z,1.57
2018-03-31T15:41:38.742Z,0.50
2018-03-31T15:44:06.588Z,1.20
2018-03-31T15:46:34.447Z,2.10
2018-03-31T15:49:02.342Z,1.50
2018-03-31T15:51:30.228Z,2.87
2018-03-31T15:53:58.111Z,18.40
2018-03-31T15:56:26.024Z,6.53
2018-03-31T15:58:53.907Z,1.00
2018-03-31T16:01:21.812Z,0.50
2018-03-31T16:03:50.968Z,1.10
2018-03-31T16:06:18.836Z,0.70
2018-03-31T16:08:46.756Z,0.90
2018-03-31T16:11:14.635Z,0.87
2018-03-31T16:13:42.519Z,0.65
2018-03-31T16:16:11.448Z,3.63
2018-03-31T16:18:39.385Z,0.83
2018-03-31T16:21:07.253Z,1.47
2018-03-31T16:23:35.140Z,6.10
2018-03-31T16:26:03.076Z,1.00
2018-03-31T16:28:30.963Z,0.67
2018-03-31T16:30:58.849Z,2.00
2018-03-31T16:33:26.755Z,0.80
2018-03-31T16:35:54.617Z,1.03
2018-03-31T16:38:22.512Z,1.07
2018-03-31T16:40:50.431Z,0.90
2018-03-31T16:43:18.305Z,2.80
2018-03-31T16:45:46.223Z,1.87
2018-03-31T16:48:14.120Z,2.07
2018-03-31T16:50:41.992Z,1.57
2018-03-31T16:53:09.895Z,0.60
2018-03-31T16:55:37.787Z,3.47
2018-03-31T16:58:05.675Z,0.53
2018-03-31T17:00:33.545Z,0.83
2018-03-31T17:03:01.444Z,0.93
2018-03-31T17:05:30.392Z,1.70
2018-03-31T17:07:58.298Z,1.53
2018-03-31T17:10:26.184Z,1.43
2018-03-31T17:12:54.148Z,1.70
2018-03-31T17:15:22.074Z,0.80
2018-03-31T17:17:49.982Z,0.40
2018-03-31T17:20:17.860Z,1.43
2018-03-31T17:22:45.756Z,2.67
2018-03-31T17:25:13.655Z,6.30
2018-03-31T17:27:41.576Z,1.13
2018-03-31T17:30:09.481Z,1.77
2018-03-31T17:32:38.268Z,1.87
2018-03-31T17:35:06.153Z,2.10
2018-03-31T17:37:34.034Z,1.70
2018-03-31T17:40:01.953Z,13.53
2018-03-31T17:42:29.847Z,1.93
2018-03-31T17:44:57.756Z,3.00
2018-03-31T17:47:25.638Z,4.70
2018-03-31T17:49:53.601Z,4.47
2018-03-31T17:52:21.509Z,1.63
2018-03-31T17:54:49.402Z,3.80
2018-03-31T17:57:17.287Z,3.27
2018-03-31T17:59:45.180Z,2.65
2018-03-31T18:02:13.126Z,2.70
2018-03-31T18:04:42.054Z,0.83
2018-03-31T18:07:09.973Z,1.40
2018-03-31T18:09:37.862Z,1.23
2018-03-31T18:12:05.751Z,2.17
2018-03-31T18:14:33.647Z,1.70
2018-03-31T18:17:01.524Z,1.50
2018-03-31T18:19:30.436Z,1.07
2018-03-31T18:21:58.335Z,2.07
2018-03-31T18:24:26.263Z,1.60
2018-03-31T18:26:54.139Z,1.17
2018-03-31T18:29:22.725Z,0.70
2018-03-31T18:31:50.656Z,2.57
2018-03-31T18:34:18.543Z,1.17
2018-03-31T18:36:46.428Z,2.37
2018-03-31T18:39:14.316Z,4.97
2018-03-31T18:41:42.205Z,4.00
2018-03-31T18:44:10.084Z,3.67
2018-03-31T18:46:37.988Z,6.30
2018-03-31T18:49:05.884Z,4.00
2018-03-31T18:51:33.773Z,3.10
2018-03-31T18:54:01.667Z,3.00
2018-03-31T18:56:29.548Z,5.67
2018-03-31T18:58:57.462Z,4.70
2018-03-31T19:01:25.378Z,2.80
2018-03-31T19:03:53.273Z,1.73
2018-03-31T19:06:21.339Z,1.93
2018-03-31T19:08:49.231Z,1.83
2018-03-31T19:11:17.113Z,3.07
2018-03-31T19:13:44.988Z,1.63
2018-03-31T19:16:12.900Z,1.73
2018-03-31T19:18:40.781Z,3.00
2018-03-31T19:21:08.679Z,1.93
2018-03-31T19:23:36.596Z,2.10
2018-03-31T19:26:04.483Z,2.07
2018-03-31T19:28:32.366Z,2.43
2018-03-31T19:31:00.280Z,3.07
2018-03-31T19:33:28.152Z,1.97
2018-03-31T19:36:02.166Z,2.20
2018-03-31T19:38:30.064Z,2.97
2018-03-31T19:40:57.913Z,1.13
2018-03-31T19:43:25.798Z,1.03
2018-03-31T19:45:53.680Z,1.87
2018-03-31T19:48:21.572Z,2.60
2018-03-31T19:50:49.477Z,2.50
2018-03-31T19:53:17.384Z,0.77
2018-03-31T19:55:45.274Z,1.93
2018-03-31T19:58:13.162Z,2.20
2018-03-31T20:00:41.068Z,1.80
2018-03-31T20:03:08.992Z,0.93
2018-03-31T20:05:36.926Z,1.83
2018-03-31T20:08:05.779Z,0.90
2018-03-31T20:10:33.665Z,3.53
2018-03-31T20:13:01.563Z,2.60
2018-03-31T20:15:29.468Z,3.87
2018-03-31T20:17:57.388Z,2.13
2018-03-31T20:20:25.323Z,2.20
2018-03-31T20:22:53.225Z,2.80
2018-03-31T20:25:21.096Z,2.50
2018-03-31T20:27:49.012Z,5.40
2018-03-31T20:30:16.888Z,5.60
2018-03-31T20:32:44.817Z,8.80
2018-03-31T20:35:12.709Z,2.80
2018-03-31T20:37:40.676Z,3.03
2018-03-31T20:40:08.699Z,2.60
2018-03-31T20:42:36.613Z,3.40
2018-03-31T20:45:04.493Z,3.57
2018-03-31T20:47:32.414Z,2.50
2018-03-31T20:50:00.357Z,4.03
2018-03-31T20:52:28.284Z,3.93
2018-03-31T20:54:56.172Z,2.07
2018-03-31T20:57:24.096Z,5.18
2018-03-31T20:59:51.985Z,3.57
2018-03-31T21:02:19.850Z,2.53
2018-03-31T21:04:47.727Z,7.77
2018-03-31T21:07:15.611Z,5.63
2018-03-31T21:09:43.544Z,6.00
2018-03-31T21:12:11.444Z,3.70
2018-03-31T21:14:39.353Z,3.90
2018-03-31T21:17:07.219Z,3.00
2018-03-31T21:19:35.144Z,4.00
2018-03-31T21:22:03.070Z,2.80
2018-03-31T21:24:30.967Z,3.50
2018-03-31T21:26:58.858Z,2.20
2018-03-31T21:29:26.720Z,2.00
2018-03-31T21:31:54.625Z,5.22
2018-03-31T21:34:22.547Z,2.83
2018-03-31T21:36:50.568Z,2.40
2018-03-31T21:39:19.692Z,2.03
2018-03-31T21:41:47.676Z,7.90
2018-03-31T21:44:15.787Z,2.55
2018-03-31T21:46:43.765Z,6.00
2018-03-31T21:49:11.810Z,2.23
2018-03-31T21:51:39.979Z,3.00
2018-03-31T21:54:07.893Z,2.83
2018-03-31T21:56:35.846Z,3.00
2018-03-31T21:59:03.716Z,1.97
2018-03-31T22:01:31.610Z,1.43
2018-03-31T22:03:59.476Z,3.43
2018-03-31T22:06:27.360Z,2.20
2018-03-31T22:08:55.239Z,2.40
2018-03-31T22:11:23.188Z,1.53
2018-03-31T22:13:57.271Z,1.65
2018-03-31T22:16:25.247Z,1.73
2018-03-31T22:18:53.152Z,3.72
2018-03-31T22:21:21.080Z,3.70
2018-03-31T22:23:48.984Z,2.70
2018-03-31T22:26:16.873Z,2.55
2018-03-31T22:28:44.757Z,7.03
2018-03-31T22:31:12.624Z,3.43
2018-03-31T22:33:40.535Z,3.00
2018-03-31T22:36:08.400Z,1.90
2018-03-31T22:38:36.324Z,3.53
2018-03-31T22:41:04.192Z,4.43
2018-03-31T22:43:32.109Z,2.05
2018-03-31T22:46:00.032Z,1.17
2018-03-31T22:48:27.912Z,3.00
2018-03-31T22:50:55.801Z,1.45
2018-03-31T22:53:23.739Z,3.13
2018-03-31T22:55:51.632Z,16.43
2018-03-31T22:58:20.611Z,1.37
2018-03-31T23:00:48.501Z,1.83
2018-03-31T23:03:16.404Z,4.68
2018-03-31T23:05:44.294Z,4.00
2018-03-31T23:08:12.223Z,0.70
2018-03-31T23:10:40.120Z,0.50
2018-03-31T23:13:08.064Z,1.92
2018-03-31T23:15:35.944Z,3.70
2018-03-31T23:18:03.826Z,0.70
2018-03-31T23:20:31.732Z,1.08
2018-03-31T23:22:59.635Z,0.90
2018-03-31T23:25:27.537Z,2.80
2018-03-31T23:27:55.415Z,1.60
2018-03-31T23:30:23.324Z,2.00
2018-03-31T23:32:51.200Z,1.90
2018-03-31T23:35:19.093Z,1.43
2018-03-31T23:37:46.972Z,1.33
2018-03-31T23:40:14.862Z,2.17
2018-03-31T23:42:42.744Z,2.78
2018-03-31T23:45:10.640Z,1.60
2018-03-31T23:47:38.537Z,1.65
2018-03-31T23:50:06.407Z,0.98
2018-03-31T23:52:34.294Z,1.52
2018-03-31T23:55:03.270Z,2.67
2018-03-31T23:57:31.140Z,0.97
2018-03-31T23:59:59.055Z,1.15
